sensor_id;sensor_type;location;lat;lon;timestamp;temperature;humidity
17483;DHT22;8858;52.308;20.994;2023-03-12T00:02:13;0.10;99.90
17483;DHT22;8858;52.308;20.994;2023-03-12T00:04:42;0.00;99.90
17483;DHT22;8858;52.308;20.994;2023-03-12T00:07:14;0.00;99.90
17483;DHT22;8858;52.308;20.994;2023-03-12T00:09:46;-0.10;99.90
17483;DHT22;8858;52.308;20.994;2023-03-12T00:12:14;-0.10;99.90
17483;DHT22;8858;52.308;20.994;2023-03-12T00:14:42;-0.10;99.90
17483;DHT22;8858;52.308;20.994;2023-03-12T00:17:12;-0.10;99.90
17483;DHT22;8858;52.308;20.994;2023-03-12T00:19:42;-0.10;99.90
17483;DHT22;8858;52.308;20.994;2023-03-12T00:22:14;-0.20;99.90
17483;DHT22;8858;52.308;20.994;2023-03-12T00:24:42;-0.20;99.90
17483;DHT22;8858;52.308;20.994;2023-03-12T00:27:11;-0.20;99.90
17483;DHT22;8858;52.308;20.994;2023-03-12T00:29:40;-0.20;99.90
17483;DHT22;8858;52.308;20.994;2023-03-12T00:32:08;-0.20;99.90
17483;DHT22;8858;52.308;20.994;2023-03-12T00:34:42;-0.30;99.90
17483;DHT22;8858;52.308;20.994;2023-03-12T00:37:11;-0.20;99.90
17483;DHT22;8858;52.308;20.994;2023-03-12T00:39:39;-0.20;99.90
17483;DHT22;8858;52.308;20.994;2023-03-12T00:42:07;-0.30;99.90
17483;DHT22;8858;52.308;20.994;2023-03-12T00:44:38;-0.30;99.90
17483;DHT22;8858;52.308;20.994;2023-03-12T00:47:11;-0.30;99.90
17483;DHT22;8858;52.308;20.994;2023-03-12T00:49:41;-0.30;99.90
17483;DHT22;8858;52.308;20.994;2023-03-12T00:52:09;-0.20;99.90
17483;DHT22;8858;52.308;20.994;2023-03-12T00:54:37;-0.20;99.90
17483;DHT22;8858;52.308;20.994;2023-03-12T00:57:08;-0.30;99.90
17483;DHT22;8858;52.308;20.994;2023-03-12T00:59:36;-0.20;99.90
17483;DHT22;8858;52.308;20.994;2023-03-12T01:02:06;-0.30;99.90
17483;DHT22;8858;52.308;20.994;2023-03-12T01:04:34;-0.30;99.90
17483;DHT22;8858;52.308;20.994;2023-03-12T01:07:04;-0.30;99.90
17483;DHT22;8858;52.308;20.994;2023-03-12T01:09:32;-0.20;99.90
17483;DHT22;8858;52.308;20.994;2023-03-12T01:12:00;-0.20;99.90
17483;DHT22;8858;52.308;20.994;2023-03-12T01:14:29;-0.20;99.90
17483;DHT22;8858;52.308;20.994;2023-03-12T01:16:57;-0.20;99.90
17483;DHT22;8858;52.308;20.994;2023-03-12T01:19:26;-0.10;99.90
17483;DHT22;8858;52.308;20.994;2023-03-12T01:21:54;-0.10;99.90
17483;DHT22;8858;52.308;20.994;2023-03-12T01:24:23;0.00;99.90
17483;DHT22;8858;52.308;20.994;2023-03-12T01:26:51;0.00;99.90
17483;DHT22;8858;52.308;20.994;2023-03-12T01:29:23;0.00;99.90
17483;DHT22;8858;52.308;20.994;2023-03-12T01:31:54;0.00;99.90
17483;DHT22;8858;52.308;20.994;2023-03-12T01:34:22;0.00;99.90
17483;DHT22;8858;52.308;20.994;2023-03-12T01:36:50;0.10;99.90
17483;DHT22;8858;52.308;20.994;2023-03-12T01:39:18;0.10;99.90
17483;DHT22;8858;52.308;20.994;2023-03-12T01:41:52;0.10;99.90
17483;DHT22;8858;52.308;20.994;2023-03-12T01:44:20;0.20;99.90
17483;DHT22;8858;52.308;20.994;2023-03-12T01:46:48;0.20;99.90
17483;DHT22;8858;52.308;20.994;2023-03-12T01:49:24;0.20;99.90
17483;DHT22;8858;52.308;20.994;2023-03-12T01:51:57;0.20;99.90
17483;DHT22;8858;52.308;20.994;2023-03-12T01:54:32;0.30;99.90
17483;DHT22;8858;52.308;20.994;2023-03-12T01:57:05;0.40;99.90
17483;DHT22;8858;52.308;20.994;2023-03-12T01:59:38;0.30;99.90
17483;DHT22;8858;52.308;20.994;2023-03-12T02:02:09;0.30;99.90
17483;DHT22;8858;52.308;20.994;2023-03-12T02:04:38;0.30;99.90
17483;DHT22;8858;52.308;20.994;2023-03-12T02:07:08;0.30;99.90
17483;DHT22;8858;52.308;20.994;2023-03-12T02:09:39;0.30;99.90
17483;DHT22;8858;52.308;20.994;2023-03-12T02:12:10;0.30;99.90
17483;DHT22;8858;52.308;20.994;2023-03-12T02:14:38;0.30;99.90
17483;DHT22;8858;52.308;20.994;2023-03-12T02:17:07;0.40;99.90
17483;DHT22;8858;52.308;20.994;2023-03-12T02:19:43;0.50;99.90
17483;DHT22;8858;52.308;20.994;2023-03-12T02:22:15;0.50;99.90
17483;DHT22;8858;52.308;20.994;2023-03-12T02:24:49;0.50;99.90
17483;DHT22;8858;52.308;20.994;2023-03-12T02:27:21;0.50;99.90
17483;DHT22;8858;52.308;20.994;2023-03-12T02:29:50;0.50;99.90
17483;DHT22;8858;52.308;20.994;2023-03-12T02:32:22;0.50;99.90
17483;DHT22;8858;52.308;20.994;2023-03-12T02:34:52;0.50;99.90
17483;DHT22;8858;52.308;20.994;2023-03-12T02:37:20;0.50;99.90
17483;DHT22;8858;52.308;20.994;2023-03-12T02:39:54;0.50;99.90
17483;DHT22;8858;52.308;20.994;2023-03-12T02:42:25;0.60;99.90
17483;DHT22;8858;52.308;20.994;2023-03-12T02:44:56;0.50;99.90
17483;DHT22;8858;52.308;20.994;2023-03-12T02:47:26;0.50;99.90
17483;DHT22;8858;52.308;20.994;2023-03-12T02:49:54;0.50;99.90
17483;DHT22;8858;52.308;20.994;2023-03-12T02:52:23;0.50;99.90
17483;DHT22;8858;52.308;20.994;2023-03-12T02:54:52;0.60;99.90
17483;DHT22;8858;52.308;20.994;2023-03-12T02:57:25;0.50;99.90
17483;DHT22;8858;52.308;20.994;2023-03-12T02:59:54;0.50;99.90
17483;DHT22;8858;52.308;20.994;2023-03-12T03:02:22;0.50;99.90
17483;DHT22;8858;52.308;20.994;2023-03-12T03:04:51;0.60;99.90
17483;DHT22;8858;52.308;20.994;2023-03-12T03:07:19;0.50;99.90
17483;DHT22;8858;52.308;20.994;2023-03-12T03:09:47;0.60;99.90
17483;DHT22;8858;52.308;20.994;2023-03-12T03:12:15;0.60;99.90
17483;DHT22;8858;52.308;20.994;2023-03-12T03:14:45;0.60;99.90
17483;DHT22;8858;52.308;20.994;2023-03-12T03:17:13;0.60;99.90
17483;DHT22;8858;52.308;20.994;2023-03-12T03:19:42;0.60;99.90
17483;DHT22;8858;52.308;20.994;2023-03-12T03:22:10;0.60;99.90
17483;DHT22;8858;52.308;20.994;2023-03-12T03:24:39;0.60;99.90
17483;DHT22;8858;52.308;20.994;2023-03-12T03:27:08;0.60;99.90
17483;DHT22;8858;52.308;20.994;2023-03-12T03:29:37;0.60;99.90
17483;DHT22;8858;52.308;20.994;2023-03-12T03:32:09;0.60;99.90
17483;DHT22;8858;52.308;20.994;2023-03-12T03:34:37;0.60;99.90
17483;DHT22;8858;52.308;20.994;2023-03-12T03:37:06;0.50;99.90
17483;DHT22;8858;52.308;20.994;2023-03-12T03:39:35;0.60;99.90
17483;DHT22;8858;52.308;20.994;2023-03-12T03:42:08;0.60;99.90
17483;DHT22;8858;52.308;20.994;2023-03-12T03:44:36;0.60;99.90
17483;DHT22;8858;52.308;20.994;2023-03-12T03:47:04;0.60;99.90
17483;DHT22;8858;52.308;20.994;2023-03-12T03:49:35;0.60;99.90
17483;DHT22;8858;52.308;20.994;2023-03-12T03:52:11;0.60;99.90
17483;DHT22;8858;52.308;20.994;2023-03-12T03:54:39;0.60;99.90
17483;DHT22;8858;52.308;20.994;2023-03-12T03:57:08;0.60;99.90
17483;DHT22;8858;52.308;20.994;2023-03-12T03:59:37;0.60;99.90
17483;DHT22;8858;52.308;20.994;2023-03-12T04:02:07;0.60;99.90
17483;DHT22;8858;52.308;20.994;2023-03-12T04:04:39;0.60;99.90
17483;DHT22;8858;52.308;20.994;2023-03-12T04:07:08;0.70;99.90
17483;DHT22;8858;52.308;20.994;2023-03-12T04:09:37;0.70;99.90
17483;DHT22;8858;52.308;20.994;2023-03-12T04:12:06;0.70;99.90
17483;DHT22;8858;52.308;20.994;2023-03-12T04:14:41;0.70;99.90
17483;DHT22;8858;52.308;20.994;2023-03-12T04:17:11;0.70;99.90
17483;DHT22;8858;52.308;20.994;2023-03-12T04:19:40;0.70;99.90
17483;DHT22;8858;52.308;20.994;2023-03-12T04:22:09;0.70;99.90
17483;DHT22;8858;52.308;20.994;2023-03-12T04:24:38;0.70;99.90
17483;DHT22;8858;52.308;20.994;2023-03-12T04:27:10;0.70;99.90
17483;DHT22;8858;52.308;20.994;2023-03-12T04:29:39;0.70;99.90
17483;DHT22;8858;52.308;20.994;2023-03-12T04:32:08;0.70;99.90
17483;DHT22;8858;52.308;20.994;2023-03-12T04:34:36;0.70;99.90
17483;DHT22;8858;52.308;20.994;2023-03-12T04:37:08;0.70;99.90
17483;DHT22;8858;52.308;20.994;2023-03-12T04:39:42;0.70;99.90
17483;DHT22;8858;52.308;20.994;2023-03-12T04:42:11;0.70;99.90
17483;DHT22;8858;52.308;20.994;2023-03-12T04:44:41;0.80;99.90
17483;DHT22;8858;52.308;20.994;2023-03-12T04:47:09;0.80;99.90
17483;DHT22;8858;52.308;20.994;2023-03-12T04:49:38;0.80;99.90
17483;DHT22;8858;52.308;20.994;2023-03-12T04:52:08;0.80;99.90
17483;DHT22;8858;52.308;20.994;2023-03-12T04:54:36;0.80;99.90
17483;DHT22;8858;52.308;20.994;2023-03-12T04:57:05;0.90;99.90
17483;DHT22;8858;52.308;20.994;2023-03-12T04:59:33;0.90;99.90
17483;DHT22;8858;52.308;20.994;2023-03-12T05:02:02;1.00;99.90
17483;DHT22;8858;52.308;20.994;2023-03-12T05:04:30;1.00;99.90
17483;DHT22;8858;52.308;20.994;2023-03-12T05:07:00;1.00;99.90
17483;DHT22;8858;52.308;20.994;2023-03-12T05:09:30;1.00;99.90
17483;DHT22;8858;52.308;20.994;2023-03-12T05:11:58;1.00;99.90
17483;DHT22;8858;52.308;20.994;2023-03-12T05:14:26;1.00;99.90
17483;DHT22;8858;52.308;20.994;2023-03-12T05:16:55;1.00;99.90
17483;DHT22;8858;52.308;20.994;2023-03-12T05:19:24;1.00;99.90
17483;DHT22;8858;52.308;20.994;2023-03-12T05:21:53;1.00;99.90
17483;DHT22;8858;52.308;20.994;2023-03-12T05:24:22;1.00;99.90
17483;DHT22;8858;52.308;20.994;2023-03-12T05:26:52;1.00;99.90
17483;DHT22;8858;52.308;20.994;2023-03-12T05:29:23;1.00;99.90
17483;DHT22;8858;52.308;20.994;2023-03-12T05:31:52;1.00;99.90
17483;DHT22;8858;52.308;20.994;2023-03-12T05:34:21;1.10;99.90
17483;DHT22;8858;52.308;20.994;2023-03-12T05:36:50;1.10;99.90
17483;DHT22;8858;52.308;20.994;2023-03-12T05:39:22;1.10;99.90
17483;DHT22;8858;52.308;20.994;2023-03-12T05:41:52;1.20;99.90
17483;DHT22;8858;52.308;20.994;2023-03-12T05:44:24;1.20;99.90
17483;DHT22;8858;52.308;20.994;2023-03-12T05:46:54;1.20;99.90
17483;DHT22;8858;52.308;20.994;2023-03-12T05:49:26;1.30;99.90
17483;DHT22;8858;52.308;20.994;2023-03-12T05:51:55;1.20;99.90
17483;DHT22;8858;52.308;20.994;2023-03-12T05:54:26;1.10;99.90
17483;DHT22;8858;52.308;20.994;2023-03-12T05:56:56;1.00;99.90
17483;DHT22;8858;52.308;20.994;2023-03-12T05:59:26;1.10;99.90
17483;DHT22;8858;52.308;20.994;2023-03-12T06:01:56;1.00;99.90
17483;DHT22;8858;52.308;20.994;2023-03-12T06:04:26;1.00;99.90
17483;DHT22;8858;52.308;20.994;2023-03-12T06:06:55;1.10;99.90
17483;DHT22;8858;52.308;20.994;2023-03-12T06:09:25;1.10;99.90
17483;DHT22;8858;52.308;20.994;2023-03-12T06:11:54;1.10;99.90
17483;DHT22;8858;52.308;20.994;2023-03-12T06:14:23;1.20;99.90
17483;DHT22;8858;52.308;20.994;2023-03-12T06:16:53;1.20;99.90
17483;DHT22;8858;52.308;20.994;2023-03-12T06:19:22;1.20;99.90
17483;DHT22;8858;52.308;20.994;2023-03-12T06:21:50;1.20;99.90
17483;DHT22;8858;52.308;20.994;2023-03-12T06:24:20;1.20;99.90
17483;DHT22;8858;52.308;20.994;2023-03-12T06:26:53;1.20;99.90
17483;DHT22;8858;52.308;20.994;2023-03-12T06:29:22;1.20;99.90
17483;DHT22;8858;52.308;20.994;2023-03-12T06:31:51;1.30;99.90
17483;DHT22;8858;52.308;20.994;2023-03-12T06:34:20;1.30;99.90
17483;DHT22;8858;52.308;20.994;2023-03-12T06:36:48;1.30;99.90
17483;DHT22;8858;52.308;20.994;2023-03-12T06:39:17;1.30;99.90
17483;DHT22;8858;52.308;20.994;2023-03-12T06:41:45;1.30;99.90
17483;DHT22;8858;52.308;20.994;2023-03-12T06:44:18;1.30;99.90
17483;DHT22;8858;52.308;20.994;2023-03-12T06:46:47;1.40;99.90
17483;DHT22;8858;52.308;20.994;2023-03-12T06:49:16;1.30;99.90
17483;DHT22;8858;52.308;20.994;2023-03-12T06:51:44;1.40;99.90
17483;DHT22;8858;52.308;20.994;2023-03-12T06:54:15;1.40;99.90
17483;DHT22;8858;52.308;20.994;2023-03-12T06:56:46;1.40;99.90
17483;DHT22;8858;52.308;20.994;2023-03-12T06:59:14;1.50;99.90
17483;DHT22;8858;52.308;20.994;2023-03-12T07:01:44;1.50;99.90
17483;DHT22;8858;52.308;20.994;2023-03-12T07:04:13;1.50;99.90
17483;DHT22;8858;52.308;20.994;2023-03-12T07:06:42;1.50;99.90
17483;DHT22;8858;52.308;20.994;2023-03-12T07:09:17;1.50;99.90
17483;DHT22;8858;52.308;20.994;2023-03-12T07:11:45;1.60;99.90
17483;DHT22;8858;52.308;20.994;2023-03-12T07:14:13;1.60;99.90
17483;DHT22;8858;52.308;20.994;2023-03-12T07:16:42;1.60;99.90
17483;DHT22;8858;52.308;20.994;2023-03-12T07:19:13;1.60;99.90
17483;DHT22;8858;52.308;20.994;2023-03-12T07:21:45;1.70;99.90
17483;DHT22;8858;52.308;20.994;2023-03-12T07:24:13;1.70;99.90
17483;DHT22;8858;52.308;20.994;2023-03-12T07:26:41;1.70;99.90
17483;DHT22;8858;52.308;20.994;2023-03-12T07:29:09;1.70;99.90
17483;DHT22;8858;52.308;20.994;2023-03-12T07:31:40;1.80;99.90
17483;DHT22;8858;52.308;20.994;2023-03-12T07:34:10;1.70;99.90
17483;DHT22;8858;52.308;20.994;2023-03-12T07:36:39;1.70;99.90
17483;DHT22;8858;52.308;20.994;2023-03-12T07:39:09;1.70;99.90
17483;DHT22;8858;52.308;20.994;2023-03-12T07:41:37;1.70;99.90
17483;DHT22;8858;52.308;20.994;2023-03-12T07:44:11;1.70;99.90
17483;DHT22;8858;52.308;20.994;2023-03-12T07:46:39;1.80;99.90
17483;DHT22;8858;52.308;20.994;2023-03-12T07:49:08;2.00;99.90
17483;DHT22;8858;52.308;20.994;2023-03-12T07:51:36;2.10;99.90
17483;DHT22;8858;52.308;20.994;2023-03-12T07:54:08;2.10;99.90
17483;DHT22;8858;52.308;20.994;2023-03-12T07:56:40;2.10;99.90
17483;DHT22;8858;52.308;20.994;2023-03-12T07:59:09;2.20;99.90
17483;DHT22;8858;52.308;20.994;2023-03-12T08:01:37;2.20;99.90
17483;DHT22;8858;52.308;20.994;2023-03-12T08:04:05;2.20;99.90
17483;DHT22;8858;52.308;20.994;2023-03-12T08:06:34;2.20;99.90
17483;DHT22;8858;52.308;20.994;2023-03-12T08:09:09;2.20;99.90
17483;DHT22;8858;52.308;20.994;2023-03-12T08:11:37;2.20;99.90
17483;DHT22;8858;52.308;20.994;2023-03-12T08:14:05;2.20;99.90
17483;DHT22;8858;52.308;20.994;2023-03-12T08:16:33;2.20;99.90
17483;DHT22;8858;52.308;20.994;2023-03-12T08:19:01;2.20;99.90
17483;DHT22;8858;52.308;20.994;2023-03-12T08:21:32;2.30;99.90
17483;DHT22;8858;52.308;20.994;2023-03-12T08:24:02;2.30;99.90
17483;DHT22;8858;52.308;20.994;2023-03-12T08:26:31;2.30;99.90
17483;DHT22;8858;52.308;20.994;2023-03-12T08:28:59;2.30;99.90
17483;DHT22;8858;52.308;20.994;2023-03-12T08:31:28;2.20;99.90
17483;DHT22;8858;52.308;20.994;2023-03-12T08:33:56;2.00;99.90
17483;DHT22;8858;52.308;20.994;2023-03-12T08:36:24;1.90;99.90
17483;DHT22;8858;52.308;20.994;2023-03-12T08:38:55;1.90;99.90
17483;DHT22;8858;52.308;20.994;2023-03-12T08:41:23;2.00;99.90
17483;DHT22;8858;52.308;20.994;2023-03-12T08:43:52;2.00;99.90
17483;DHT22;8858;52.308;20.994;2023-03-12T08:46:20;2.00;99.90
17483;DHT22;8858;52.308;20.994;2023-03-12T08:48:48;2.20;99.90
17483;DHT22;8858;52.308;20.994;2023-03-12T08:51:17;2.20;99.90
17483;DHT22;8858;52.308;20.994;2023-03-12T08:53:48;2.30;99.90
17483;DHT22;8858;52.308;20.994;2023-03-12T08:56:20;2.30;99.90
17483;DHT22;8858;52.308;20.994;2023-03-12T08:58:48;2.40;99.90
17483;DHT22;8858;52.308;20.994;2023-03-12T09:01:20;2.40;99.90
17483;DHT22;8858;52.308;20.994;2023-03-12T09:03:48;2.40;99.90
17483;DHT22;8858;52.308;20.994;2023-03-12T09:06:18;2.40;99.90
17483;DHT22;8858;52.308;20.994;2023-03-12T09:08:46;2.40;99.90
17483;DHT22;8858;52.308;20.994;2023-03-12T09:11:15;2.40;99.90
17483;DHT22;8858;52.308;20.994;2023-03-12T09:13:43;2.40;99.90
17483;DHT22;8858;52.308;20.994;2023-03-12T09:16:34;2.50;99.90
17483;DHT22;8858;52.308;20.994;2023-03-12T09:19:02;2.50;99.90
17483;DHT22;8858;52.308;20.994;2023-03-12T09:21:31;2.50;99.90
17483;DHT22;8858;52.308;20.994;2023-03-12T09:23:59;2.50;99.90
17483;DHT22;8858;52.308;20.994;2023-03-12T09:26:28;2.40;99.90
17483;DHT22;8858;52.308;20.994;2023-03-12T09:29:00;2.40;99.90
17483;DHT22;8858;52.308;20.994;2023-03-12T09:31:30;2.40;99.90
17483;DHT22;8858;52.308;20.994;2023-03-12T09:33:59;2.40;99.90
17483;DHT22;8858;52.308;20.994;2023-03-12T09:36:27;2.50;99.90
17483;DHT22;8858;52.308;20.994;2023-03-12T09:38:56;2.60;99.90
17483;DHT22;8858;52.308;20.994;2023-03-12T09:41:29;2.60;99.90
17483;DHT22;8858;52.308;20.994;2023-03-12T09:44:01;2.70;99.90
17483;DHT22;8858;52.308;20.994;2023-03-12T09:46:34;2.70;99.90
17483;DHT22;8858;52.308;20.994;2023-03-12T09:49:13;2.80;99.90
17483;DHT22;8858;52.308;20.994;2023-03-12T09:51:50;2.90;99.90
17483;DHT22;8858;52.308;20.994;2023-03-12T09:54:26;2.80;99.90
17483;DHT22;8858;52.308;20.994;2023-03-12T09:56:57;2.80;99.90
17483;DHT22;8858;52.308;20.994;2023-03-12T09:59:28;2.90;99.90
17483;DHT22;8858;52.308;20.994;2023-03-12T10:02:03;2.80;99.90
17483;DHT22;8858;52.308;20.994;2023-03-12T10:04:40;2.80;99.90
17483;DHT22;8858;52.308;20.994;2023-03-12T10:07:30;2.70;99.90
17483;DHT22;8858;52.308;20.994;2023-03-12T10:10:09;2.80;99.90
17483;DHT22;8858;52.308;20.994;2023-03-12T10:12:50;2.80;99.90
17483;DHT22;8858;52.308;20.994;2023-03-12T10:15:30;2.80;99.90
17483;DHT22;8858;52.308;20.994;2023-03-12T10:18:15;2.80;99.90
17483;DHT22;8858;52.308;20.994;2023-03-12T10:20:56;2.80;99.90
17483;DHT22;8858;52.308;20.994;2023-03-12T10:23:37;2.90;99.90
17483;DHT22;8858;52.308;20.994;2023-03-12T10:26:11;2.90;99.90
17483;DHT22;8858;52.308;20.994;2023-03-12T10:28:43;3.00;99.90
17483;DHT22;8858;52.308;20.994;2023-03-12T10:31:17;3.00;99.90
17483;DHT22;8858;52.308;20.994;2023-03-12T10:33:52;3.00;99.90
17483;DHT22;8858;52.308;20.994;2023-03-12T10:36:25;3.00;99.90
17483;DHT22;8858;52.308;20.994;2023-03-12T10:38:56;3.00;99.90
17483;DHT22;8858;52.308;20.994;2023-03-12T10:41:28;3.10;99.90
17483;DHT22;8858;52.308;20.994;2023-03-12T10:44:05;3.20;99.90
17483;DHT22;8858;52.308;20.994;2023-03-12T10:46:45;3.20;99.90
17483;DHT22;8858;52.308;20.994;2023-03-12T10:49:24;3.30;99.90
17483;DHT22;8858;52.308;20.994;2023-03-12T10:51:57;3.30;99.90
17483;DHT22;8858;52.308;20.994;2023-03-12T10:54:29;3.20;99.90
17483;DHT22;8858;52.308;20.994;2023-03-12T10:57:04;3.30;99.90
17483;DHT22;8858;52.308;20.994;2023-03-12T10:59:34;3.30;99.90
17483;DHT22;8858;52.308;20.994;2023-03-12T11:02:17;3.40;99.90
17483;DHT22;8858;52.308;20.994;2023-03-12T11:04:52;3.40;99.90
17483;DHT22;8858;52.308;20.994;2023-03-12T11:07:24;3.50;99.90
17483;DHT22;8858;52.308;20.994;2023-03-12T11:10:14;3.40;99.90
17483;DHT22;8858;52.308;20.994;2023-03-12T11:12:53;3.40;99.90
17483;DHT22;8858;52.308;20.994;2023-03-12T11:15:24;3.30;99.90
17483;DHT22;8858;52.308;20.994;2023-03-12T11:18:18;3.20;99.90
17483;DHT22;8858;52.308;20.994;2023-03-12T11:20:48;3.30;99.90
17483;DHT22;8858;52.308;20.994;2023-03-12T11:23:23;3.40;99.90
17483;DHT22;8858;52.308;20.994;2023-03-12T11:26:15;3.50;99.90
17483;DHT22;8858;52.308;20.994;2023-03-12T11:28:47;3.60;99.90
17483;DHT22;8858;52.308;20.994;2023-03-12T11:31:21;3.80;99.90
17483;DHT22;8858;52.308;20.994;2023-03-12T11:33:51;3.90;99.90
17483;DHT22;8858;52.308;20.994;2023-03-12T11:36:40;3.90;99.90
17483;DHT22;8858;52.308;20.994;2023-03-12T11:39:19;3.90;99.90
17483;DHT22;8858;52.308;20.994;2023-03-12T11:42:09;4.00;99.90
17483;DHT22;8858;52.308;20.994;2023-03-12T11:44:49;3.90;99.90
17483;DHT22;8858;52.308;20.994;2023-03-12T11:47:33;3.90;99.90
17483;DHT22;8858;52.308;20.994;2023-03-12T11:50:14;4.10;99.90
17483;DHT22;8858;52.308;20.994;2023-03-12T11:53:02;4.20;99.90
17483;DHT22;8858;52.308;20.994;2023-03-12T11:55:41;4.20;99.90
17483;DHT22;8858;52.308;20.994;2023-03-12T11:58:30;4.20;99.90
17483;DHT22;8858;52.308;20.994;2023-03-12T12:01:09;4.10;99.90
17483;DHT22;8858;52.308;20.994;2023-03-12T12:04:12;4.10;99.90
17483;DHT22;8858;52.308;20.994;2023-03-12T12:06:52;4.00;99.90
17483;DHT22;8858;52.308;20.994;2023-03-12T12:09:28;4.00;99.90
17483;DHT22;8858;52.308;20.994;2023-03-12T12:12:10;3.90;99.90
17483;DHT22;8858;52.308;20.994;2023-03-12T12:14:56;3.90;99.90
17483;DHT22;8858;52.308;20.994;2023-03-12T12:17:37;3.90;99.90
17483;DHT22;8858;52.308;20.994;2023-03-12T12:20:18;3.90;99.90
17483;DHT22;8858;52.308;20.994;2023-03-12T12:23:07;4.00;99.90
17483;DHT22;8858;52.308;20.994;2023-03-12T12:26:00;4.00;99.90
17483;DHT22;8858;52.308;20.994;2023-03-12T12:31:36;4.00;99.90
17483;DHT22;8858;52.308;20.994;2023-03-12T12:34:36;4.10;99.90
17483;DHT22;8858;52.308;20.994;2023-03-12T12:37:19;4.10;99.90
17483;DHT22;8858;52.308;20.994;2023-03-12T12:39:53;4.20;99.90
17483;DHT22;8858;52.308;20.994;2023-03-12T12:42:27;4.30;99.90
17483;DHT22;8858;52.308;20.994;2023-03-12T12:45:01;4.20;99.90
17483;DHT22;8858;52.308;20.994;2023-03-12T12:47:36;4.20;99.90
17483;DHT22;8858;52.308;20.994;2023-03-12T12:50:15;4.10;99.90
17483;DHT22;8858;52.308;20.994;2023-03-12T12:52:50;4.10;99.90
17483;DHT22;8858;52.308;20.994;2023-03-12T12:55:25;4.10;99.90
17483;DHT22;8858;52.308;20.994;2023-03-12T12:57:59;4.20;99.90
17483;DHT22;8858;52.308;20.994;2023-03-12T13:00:45;4.20;99.90
17483;DHT22;8858;52.308;20.994;2023-03-12T13:03:17;4.20;99.90
17483;DHT22;8858;52.308;20.994;2023-03-12T13:05:53;4.30;99.90
17483;DHT22;8858;52.308;20.994;2023-03-12T13:11:37;4.20;99.90
17483;DHT22;8858;52.308;20.994;2023-03-12T13:17:18;4.20;99.90
17483;DHT22;8858;52.308;20.994;2023-03-12T13:19:47;4.40;99.90
17483;DHT22;8858;52.308;20.994;2023-03-12T13:22:52;4.40;99.90
17483;DHT22;8858;52.308;20.994;2023-03-12T13:25:35;4.40;99.90
17483;DHT22;8858;52.308;20.994;2023-03-12T13:28:36;4.30;99.90
17483;DHT22;8858;52.308;20.994;2023-03-12T13:31:34;4.30;99.90
17483;DHT22;8858;52.308;20.994;2023-03-12T13:34:31;4.40;99.90
17483;DHT22;8858;52.308;20.994;2023-03-12T13:37:27;4.40;99.90
17483;DHT22;8858;52.308;20.994;2023-03-12T13:39:59;4.50;99.90
17483;DHT22;8858;52.308;20.994;2023-03-12T13:42:39;4.50;99.90
17483;DHT22;8858;52.308;20.994;2023-03-12T13:45:25;4.60;99.90
17483;DHT22;8858;52.308;20.994;2023-03-12T13:47:58;4.80;99.90
17483;DHT22;8858;52.308;20.994;2023-03-12T13:50:29;4.90;99.90
17483;DHT22;8858;52.308;20.994;2023-03-12T13:53:03;5.00;99.90
17483;DHT22;8858;52.308;20.994;2023-03-12T13:55:34;5.20;99.90
17483;DHT22;8858;52.308;20.994;2023-03-12T13:58:06;5.30;99.90
17483;DHT22;8858;52.308;20.994;2023-03-12T14:00:40;5.20;99.90
17483;DHT22;8858;52.308;20.994;2023-03-12T14:03:15;5.20;99.90
17483;DHT22;8858;52.308;20.994;2023-03-12T14:05:53;5.30;99.90
17483;DHT22;8858;52.308;20.994;2023-03-12T14:08:43;5.40;99.90
17483;DHT22;8858;52.308;20.994;2023-03-12T14:11:33;5.40;99.90
17483;DHT22;8858;52.308;20.994;2023-03-12T14:14:26;5.40;99.90
17483;DHT22;8858;52.308;20.994;2023-03-12T14:16:58;5.40;99.90
17483;DHT22;8858;52.308;20.994;2023-03-12T14:19:29;5.30;99.90
17483;DHT22;8858;52.308;20.994;2023-03-12T14:22:03;5.30;99.90
17483;DHT22;8858;52.308;20.994;2023-03-12T14:24:38;5.20;99.90
17483;DHT22;8858;52.308;20.994;2023-03-12T14:27:14;5.20;99.90
17483;DHT22;8858;52.308;20.994;2023-03-12T14:29:46;5.10;99.90
17483;DHT22;8858;52.308;20.994;2023-03-12T14:32:20;5.20;99.90
17483;DHT22;8858;52.308;20.994;2023-03-12T14:34:52;5.30;99.90
17483;DHT22;8858;52.308;20.994;2023-03-12T14:37:29;5.30;99.90
17483;DHT22;8858;52.308;20.994;2023-03-12T14:40:00;5.10;99.90
17483;DHT22;8858;52.308;20.994;2023-03-12T14:42:32;5.00;99.90
17483;DHT22;8858;52.308;20.994;2023-03-12T14:45:11;4.90;99.90
17483;DHT22;8858;52.308;20.994;2023-03-12T14:47:41;4.80;99.90
17483;DHT22;8858;52.308;20.994;2023-03-12T14:50:16;4.70;99.90
17483;DHT22;8858;52.308;20.994;2023-03-12T14:52:47;4.60;99.90
17483;DHT22;8858;52.308;20.994;2023-03-12T14:55:19;4.60;99.90
17483;DHT22;8858;52.308;20.994;2023-03-12T14:57:49;4.50;99.90
17483;DHT22;8858;52.308;20.994;2023-03-12T15:00:29;4.40;99.90
17483;DHT22;8858;52.308;20.994;2023-03-12T15:03:03;4.40;99.90
17483;DHT22;8858;52.308;20.994;2023-03-12T15:05:32;4.40;99.90
17483;DHT22;8858;52.308;20.994;2023-03-12T15:08:02;4.40;99.90
17483;DHT22;8858;52.308;20.994;2023-03-12T15:10:39;4.40;99.90
17483;DHT22;8858;52.308;20.994;2023-03-12T15:13:11;4.50;99.90
17483;DHT22;8858;52.308;20.994;2023-03-12T15:15:41;4.50;99.90
17483;DHT22;8858;52.308;20.994;2023-03-12T15:18:14;4.50;99.90
17483;DHT22;8858;52.308;20.994;2023-03-12T15:20:43;4.50;99.90
17483;DHT22;8858;52.308;20.994;2023-03-12T15:23:16;4.50;99.90
17483;DHT22;8858;52.308;20.994;2023-03-12T15:25:45;4.50;99.90
17483;DHT22;8858;52.308;20.994;2023-03-12T15:28:25;4.50;99.90
17483;DHT22;8858;52.308;20.994;2023-03-12T15:31:08;4.40;99.90
17483;DHT22;8858;52.308;20.994;2023-03-12T15:33:38;4.40;99.90
17483;DHT22;8858;52.308;20.994;2023-03-12T15:36:32;4.40;99.90
17483;DHT22;8858;52.308;20.994;2023-03-12T15:39:13;4.60;99.90
17483;DHT22;8858;52.308;20.994;2023-03-12T15:41:49;4.40;99.90
17483;DHT22;8858;52.308;20.994;2023-03-12T15:44:20;4.40;99.90
17483;DHT22;8858;52.308;20.994;2023-03-12T15:46:51;4.40;99.90
17483;DHT22;8858;52.308;20.994;2023-03-12T15:49:24;4.30;99.90
17483;DHT22;8858;52.308;20.994;2023-03-12T15:52:03;4.20;99.90
17483;DHT22;8858;52.308;20.994;2023-03-12T15:54:33;4.30;99.90
17483;DHT22;8858;52.308;20.994;2023-03-12T15:57:21;4.20;99.90
17483;DHT22;8858;52.308;20.994;2023-03-12T16:00:18;4.10;99.90
17483;DHT22;8858;52.308;20.994;2023-03-12T16:03:15;4.10;99.90
17483;DHT22;8858;52.308;20.994;2023-03-12T16:05:49;4.20;99.90
17483;DHT22;8858;52.308;20.994;2023-03-12T16:08:19;4.10;99.90
17483;DHT22;8858;52.308;20.994;2023-03-12T16:10:49;4.10;99.90
17483;DHT22;8858;52.308;20.994;2023-03-12T16:13:26;4.00;99.90
17483;DHT22;8858;52.308;20.994;2023-03-12T16:15:58;4.00;99.90
17483;DHT22;8858;52.308;20.994;2023-03-12T16:18:26;4.00;99.90
17483;DHT22;8858;52.308;20.994;2023-03-12T16:20:55;3.90;99.90
17483;DHT22;8858;52.308;20.994;2023-03-12T16:23:24;3.90;99.90
17483;DHT22;8858;52.308;20.994;2023-03-12T16:25:54;3.90;99.90
17483;DHT22;8858;52.308;20.994;2023-03-12T16:28:24;3.90;99.90
17483;DHT22;8858;52.308;20.994;2023-03-12T16:30:53;3.80;99.90